Terminal Aerodrome Forecast
Issued by NWS

Home | Current Version | Previous Version | Text Only | Print | Product List | Glossary On
Versions: 1 2 3 4 5 6 7 8 9 10 11 12 13 14 15 16 17 18
786
FTUS43 KJKL 262320
TAFSME
TAF
KSME 262320Z 2700/2724 20005KT P6SM SCT200
     FM271100 22004KT P6SM -SHRA BKN025
     FM271500 24007KT P6SM -SHRA BKN025
     FM271600 24007KT P6SM -SHRA VCTS BKN020CB
     FM272000 25006KT P6SM BKN050=

USA.gov is the U.S. government's official web portal to all federal, state and local government web resources and services.